Time,TemperatureF,DewpointF,PressureIn,WindDirection,WindDirectionDegrees,WindSpeedMPH,WindSpeedGustMPH,Humidity,HourlyPrecipIn,Conditions,Clouds,dailyrainin,SoftwareType,DateUTC
2013-08-19 00:23:00,63.0,62.0,-100.00,ENE,58,1.0,3.0,97,0.00,,,-99.99,,2013-08-19 04:23:00,
2013-08-19 00:33:00,63.0,62.0,-100.00,ENE,58,1.0,3.0,97,0.00,,,-99.99,,2013-08-19 04:33:00,
2013-08-19 00:42:00,63.0,62.0,-100.00,ENE,58,1.0,3.0,97,0.00,,,-99.99,,2013-08-19 04:42:00,
2013-08-19 01:22:00,63.0,62.0,-100.00,NNW,334,2.0,4.0,98,0.00,,,-99.99,,2013-08-19 05:22:00,
2013-08-19 01:33:00,63.0,62.0,-100.00,NNW,334,2.0,4.0,98,0.00,,,-99.99,,2013-08-19 05:33:00,
2013-08-19 01:42:00,63.0,62.0,-100.00,NNW,334,2.0,4.0,98,0.00,,,-99.99,,2013-08-19 05:42:00,
2013-08-19 02:21:00,62.0,61.0,-100.00,NNW,338,1.0,2.0,97,0.00,,,-99.99,,2013-08-19 06:21:00,
2013-08-19 02:32:00,62.0,61.0,-100.00,NNW,338,1.0,2.0,97,0.00,,,-99.99,,2013-08-19 06:32:00,
2013-08-19 02:42:00,62.0,61.0,-100.00,NNW,338,1.0,2.0,97,0.00,,,-99.99,,2013-08-19 06:42:00,
2013-08-19 03:21:00,61.0,60.0,-100.00,NNW,340,1.0,2.0,98,0.00,,,-99.99,,2013-08-19 07:21:00,
2013-08-19 03:32:00,61.0,60.0,-100.00,NNW,340,1.0,2.0,98,0.00,,,-99.99,,2013-08-19 07:32:00,
2013-08-19 03:42:00,61.0,60.0,-100.00,NNW,340,1.0,2.0,98,0.00,,,-99.99,,2013-08-19 07:42:00,
2013-08-19 04:22:00,60.0,59.0,-100.00,NW,313,1.0,3.0,97,0.01,,,-99.99,,2013-08-19 08:22:00,
2013-08-19 04:32:00,60.0,59.0,-100.00,NW,313,1.0,3.0,97,0.01,,,-99.99,,2013-08-19 08:32:00,
2013-08-19 04:42:00,60.0,59.0,-100.00,NW,313,1.0,3.0,97,0.01,,,-99.99,,2013-08-19 08:42:00,
2013-08-19 05:22:00,59.0,58.0,-100.00,NW,313,1.0,2.0,97,0.00,,,-99.99,,2013-08-19 09:22:00,
2013-08-19 05:33:00,59.0,58.0,-100.00,NW,313,1.0,2.0,97,0.00,,,-99.99,,2013-08-19 09:33:00,
2013-08-19 05:43:00,59.0,58.0,-100.00,NW,313,1.0,2.0,97,0.00,,,-99.99,,2013-08-19 09:43:00,
2013-08-19 06:23:00,59.0,58.0,-100.00,NW,316,1.0,2.0,97,0.00,,,-99.99,,2013-08-19 10:23:00,
2013-08-19 06:33:00,59.0,58.0,-100.00,NW,316,1.0,2.0,97,0.00,,,-99.99,,2013-08-19 10:33:00,
2013-08-19 06:43:00,59.0,58.0,-100.00,NW,316,1.0,2.0,97,0.00,,,-99.99,,2013-08-19 10:43:00,
2013-08-19 06:45:00,60.0,59.0,-100.00,NW,304,1.0,4.0,96,0.00,,,-99.99,,2013-08-19 10:45:00,
2013-08-19 07:22:00,60.0,59.0,-100.00,NW,304,1.0,4.0,96,0.00,,,-99.99,,2013-08-19 11:22:00,
2013-08-19 07:33:00,60.0,59.0,-100.00,NW,304,1.0,4.0,96,0.00,,,-99.99,,2013-08-19 11:33:00,
2013-08-19 08:21:00,66.0,63.0,-100.00,NW,305,2.0,6.0,91,0.00,,,-99.99,,2013-08-19 12:21:00,
2013-08-19 08:32:00,66.0,63.0,-100.00,NW,305,2.0,6.0,91,0.00,,,-99.99,,2013-08-19 12:32:00,
2013-08-19 08:42:00,66.0,63.0,-100.00,NW,305,2.0,6.0,91,0.00,,,-99.99,,2013-08-19 12:42:00,
2013-08-19 09:22:00,69.0,64.0,-100.00,WNW,301,3.0,7.0,85,0.00,,,-99.99,,2013-08-19 13:22:00,
2013-08-19 09:32:00,69.0,64.0,-100.00,WNW,301,3.0,7.0,85,0.00,,,-99.99,,2013-08-19 13:32:00,
2013-08-19 09:42:00,69.0,64.0,-100.00,WNW,301,3.0,7.0,85,0.00,,,-99.99,,2013-08-19 13:42:00,
2013-08-19 10:22:00,71.0,64.0,-100.00,West,280,2.0,6.0,79,0.00,,,-99.99,,2013-08-19 14:22:00,
2013-08-19 10:32:00,71.0,64.0,-100.00,West,280,2.0,6.0,79,0.00,,,-99.99,,2013-08-19 14:32:00,
2013-08-19 10:42:00,71.0,64.0,-100.00,West,280,2.0,6.0,79,0.00,,,-99.99,,2013-08-19 14:42:00,
2013-08-19 11:23:00,74.0,64.0,-100.00,WNW,302,4.0,8.0,71,0.00,,,-99.99,,2013-08-19 15:23:00,
2013-08-19 11:34:00,74.0,64.0,-100.00,WNW,302,4.0,8.0,71,0.00,,,-99.99,,2013-08-19 15:34:00,
2013-08-19 11:44:00,74.0,64.0,-100.00,WNW,302,4.0,8.0,71,0.00,,,-99.99,,2013-08-19 15:44:00,
2013-08-19 11:45:00,76.0,65.0,-100.00,NW,308,3.0,8.0,70,0.00,,,-99.99,,2013-08-19 15:45:00,
2013-08-19 12:23:00,76.0,65.0,-100.00,NW,308,3.0,8.0,70,0.00,,,-99.99,,2013-08-19 16:23:00,
2013-08-19 12:34:00,76.0,65.0,-100.00,NW,308,3.0,8.0,70,0.00,,,-99.99,,2013-08-19 16:34:00,
2013-08-19 12:45:00,77.0,68.0,-100.00,SW,229,2.0,8.0,73,0.00,,,-99.99,,2013-08-19 16:45:00,
2013-08-19 13:30:00,77.0,-99.9,-100.00,SW,229,2.0,8.0,73,0.00,,,-99.99,,2013-08-19 17:30:00,
2013-08-19 13:38:00,77.0,68.0,-100.00,SW,229,2.0,8.0,73,0.00,,,-99.99,,2013-08-19 17:38:00,
2013-08-19 13:45:00,-999.0,-99.9,-100.00,SW,216,3.0,8.0,73,0.00,,,-99.99,,2013-08-19 17:45:00,
2013-08-19 14:28:00,77.0,68.0,-100.00,SW,216,3.0,8.0,73,0.00,,,-99.99,,2013-08-19 18:28:00,
2013-08-19 14:39:00,77.0,68.0,-100.00,SW,216,3.0,8.0,73,0.00,,,-99.99,,2013-08-19 18:39:00,
2013-08-19 14:45:00,75.0,67.0,-100.00,WSW,242,3.0,8.0,77,0.00,,,-99.99,,2013-08-19 18:45:00,
2013-08-19 15:30:00,-999.0,-99.9,-100.00,WSW,242,3.0,8.0,77,0.00,,,-99.99,,2013-08-19 19:30:00,
2013-08-19 15:40:00,75.0,67.0,-100.00,WSW,242,3.0,8.0,77,0.00,,,-99.99,,2013-08-19 19:40:00,
2013-08-19 15:45:00,76.0,65.0,-100.00,West,272,4.0,11.0,69,0.00,,,-99.99,,2013-08-19 19:45:00,
2013-08-19 16:30:00,76.0,-99.9,-100.00,West,272,4.0,11.0,69,0.00,,,-99.99,,2013-08-19 20:30:00,
2013-08-19 16:40:00,76.0,65.0,-100.00,West,272,4.0,11.0,69,0.00,,,-99.99,,2013-08-19 20:40:00,
2013-08-19 16:45:00,75.0,66.0,-100.00,WNW,284,3.0,8.0,71,0.00,,,-99.99,,2013-08-19 20:45:00,
2013-08-19 17:25:00,75.0,66.0,-100.00,WNW,284,3.0,8.0,71,0.00,,,-99.99,,2013-08-19 21:25:00,
2013-08-19 17:38:00,75.0,66.0,-100.00,WNW,284,3.0,8.0,71,0.00,,,-99.99,,2013-08-19 21:38:00,
2013-08-19 18:25:00,75.0,66.0,-100.00,West,275,2.0,8.0,73,0.00,,,-99.99,,2013-08-19 22:25:00,
2013-08-19 18:35:00,75.0,66.0,-100.00,West,275,2.0,8.0,73,0.00,,,-99.99,,2013-08-19 22:35:00,
2013-08-19 18:44:00,75.0,66.0,-100.00,West,275,2.0,8.0,73,0.00,,,-99.99,,2013-08-19 22:44:00,
2013-08-19 18:45:00,74.0,66.0,-100.00,West,280,2.0,5.0,76,0.00,,,-99.99,,2013-08-19 22:45:00,
2013-08-19 19:25:00,74.0,66.0,-100.00,West,280,2.0,5.0,76,0.00,,,-99.99,,2013-08-19 23:25:00,
2013-08-19 19:36:00,74.0,66.0,-100.00,West,280,2.0,5.0,76,0.00,,,-99.99,,2013-08-19 23:36:00,
2013-08-19 20:24:00,72.0,66.0,-100.00,WNW,299,3.0,8.0,80,0.00,,,-99.99,,2013-08-20 00:24:00,
2013-08-19 20:32:00,72.0,66.0,-100.00,WNW,299,3.0,8.0,80,0.00,,,-99.99,,2013-08-20 00:32:00,
2013-08-19 20:42:00,72.0,66.0,-100.00,WNW,299,3.0,8.0,80,0.00,,,-99.99,,2013-08-20 00:42:00,
2013-08-19 21:22:00,72.0,66.0,-100.00,WNW,302,2.0,5.0,83,0.00,,,-99.99,,2013-08-20 01:22:00,
2013-08-19 21:32:00,72.0,66.0,-100.00,WNW,302,2.0,5.0,83,0.00,,,-99.99,,2013-08-20 01:32:00,
2013-08-19 21:42:00,72.0,66.0,-100.00,WNW,302,2.0,5.0,83,0.00,,,-99.99,,2013-08-20 01:42:00,
2013-08-19 22:21:00,71.0,67.0,-100.00,WNW,303,2.0,4.0,87,0.00,,,-99.99,,2013-08-20 02:21:00,
2013-08-19 22:33:00,71.0,67.0,-100.00,WNW,303,2.0,4.0,87,0.00,,,-99.99,,2013-08-20 02:33:00,
2013-08-19 22:42:00,71.0,67.0,-100.00,WNW,303,2.0,4.0,87,0.00,,,-99.99,,2013-08-20 02:42:00,
2013-08-19 23:22:00,71.0,67.0,-100.00,NW,310,2.0,6.0,88,0.00,,,-99.99,,2013-08-20 03:22:00,
2013-08-19 23:33:00,71.0,67.0,-100.00,NW,310,2.0,6.0,88,0.00,,,-99.99,,2013-08-20 03:33:00,
2013-08-19 23:43:00,71.0,67.0,-100.00,NW,310,2.0,6.0,88,0.00,,,-99.99,,2013-08-20 03:43:00,